DNO229 LOWW-LROP
Flight info
| Callsign | DNO229 |
|---|---|
| Flight time | 1h 22m |
| Altitude | 37000 |
| Route | ADAMA Z648 VEDER L140 ALAMU DCT EPARI DCT NARKA DCT DENAK |
| Aircraft | A319/M-SDE3FGHIRWY/LB1 |
Departure
| Time | 2026-04-25 09:20 |
|---|---|
| Airport | Vienna International Airport (LOWW) |
Arrival
| Time | 2026-04-25 10:42 |
|---|---|
| Airport | Bucharest Henri Coandă International Airport (LROP) |
| Time | Latitude | Longitude | Altitude | Speed | Heading |
|---|---|---|---|---|---|
| 2026-04-25 09:12 | 48.11541 | 16.57326 | 622 ft | 0 kts | 26° |
| 2026-04-25 09:14 | 48.11543 | 16.57328 | 623 ft | 2 kts | 26° |
| 2026-04-25 09:14 | 48.11570 | 16.57347 | 615 ft | 7 kts | 27° |
| 2026-04-25 09:14 | 48.11595 | 16.57399 | 609 ft | 7 kts | 95° |
| 2026-04-25 09:15 | 48.11571 | 16.57479 | 614 ft | 10 kts | 117° |
| 2026-04-25 09:15 | 48.11536 | 16.57583 | 614 ft | 12 kts | 117° |
| 2026-04-25 09:15 | 48.11493 | 16.57706 | 614 ft | 14 kts | 117° |
| 2026-04-25 09:15 | 48.11408 | 16.57775 | 611 ft | 16 kts | 170° |
| 2026-04-25 09:16 | 48.11298 | 16.57821 | 620 ft | 17 kts | 164° |
| 2026-04-25 09:16 | 48.11179 | 16.57872 | 618 ft | 19 kts | 165° |
| 2026-04-25 09:16 | 48.11051 | 16.57924 | 613 ft | 20 kts | 165° |
| 2026-04-25 09:16 | 48.10914 | 16.57982 | 614 ft | 21 kts | 163° |
| 2026-04-25 09:17 | 48.10608 | 16.58109 | 620 ft | 24 kts | 166° |
| 2026-04-25 09:17 | 48.10446 | 16.58093 | 618 ft | 25 kts | 209° |
| 2026-04-25 09:17 | 48.10279 | 16.58117 | 611 ft | 26 kts | 165° |
| 2026-04-25 09:18 | 48.10100 | 16.58192 | 618 ft | 27 kts | 164° |
| 2026-04-25 09:18 | 48.09915 | 16.58269 | 609 ft | 28 kts | 165° |
| 2026-04-25 09:18 | 48.09721 | 16.58350 | 620 ft | 30 kts | 164° |
| 2026-04-25 09:18 | 48.09653 | 16.58522 | 615 ft | 22 kts | 52° |
| 2026-04-25 09:19 | 48.09793 | 16.58583 | 609 ft | 22 kts | 5° |
| 2026-04-25 09:19 | 48.09957 | 16.58614 | 609 ft | 26 kts | 7° |
| 2026-04-25 09:19 | 48.10321 | 16.58548 | 620 ft | 90 kts | 345° |
| 2026-04-25 09:19 | 48.11159 | 16.58178 | 611 ft | 159 kts | 343° |
| 2026-04-25 09:20 | 48.12259 | 16.57708 | 1234 ft | 162 kts | 344° |
| 2026-04-25 09:20 | 48.13357 | 16.57288 | 2096 ft | 163 kts | 347° |
| 2026-04-25 09:20 | 48.14503 | 16.57576 | 2689 ft | 185 kts | 29° |
| 2026-04-25 09:20 | 48.15274 | 16.59287 | 3019 ft | 220 kts | 71° |
| 2026-04-25 09:21 | 48.15419 | 16.60228 | 3177 ft | 232 kts | 76° |
| 2026-04-25 09:21 | 48.15602 | 16.61771 | 3481 ft | 250 kts | 77° |
| 2026-04-25 09:21 | 48.15850 | 16.64480 | 3986 ft | 275 kts | 79° |
| 2026-04-25 09:22 | 48.16097 | 16.67400 | 4718 ft | 288 kts | 79° |
| 2026-04-25 09:22 | 48.16349 | 16.70408 | 5674 ft | 293 kts | 81° |
| 2026-04-25 09:22 | 48.16146 | 16.73470 | 6669 ft | 299 kts | 102° |
| 2026-04-25 09:22 | 48.15490 | 16.76377 | 7607 ft | 302 kts | 110° |
| 2026-04-25 09:23 | 48.14621 | 16.79262 | 8549 ft | 305 kts | 114° |
| 2026-04-25 09:23 | 48.13717 | 16.82144 | 9486 ft | 307 kts | 112° |
| 2026-04-25 09:23 | 48.12853 | 16.85084 | 10294 ft | 312 kts | 111° |
| 2026-04-25 09:23 | 48.11974 | 16.88190 | 10571 ft | 336 kts | 111° |
| 2026-04-25 09:24 | 48.11041 | 16.91521 | 10867 ft | 356 kts | 111° |
| 2026-04-25 09:24 | 48.10072 | 16.94977 | 11475 ft | 364 kts | 111° |
| 2026-04-25 09:24 | 48.09080 | 16.98480 | 12179 ft | 368 kts | 112° |
| 2026-04-25 09:24 | 48.08068 | 17.02024 | 12889 ft | 372 kts | 112° |
| 2026-04-25 09:25 | 48.07044 | 17.05597 | 13575 ft | 376 kts | 112° |
| 2026-04-25 09:25 | 48.06005 | 17.09209 | 14205 ft | 380 kts | 112° |
| 2026-04-25 09:25 | 48.04952 | 17.12858 | 14806 ft | 384 kts | 112° |
| 2026-04-25 09:25 | 48.03883 | 17.16545 | 15403 ft | 389 kts | 113° |
| 2026-04-25 09:26 | 48.02803 | 17.20264 | 16005 ft | 393 kts | 113° |
| 2026-04-25 09:26 | 48.01709 | 17.24030 | 16613 ft | 397 kts | 113° |
| 2026-04-25 09:26 | 48.00600 | 17.27846 | 17150 ft | 403 kts | 113° |
| 2026-04-25 09:26 | 47.99478 | 17.31710 | 17716 ft | 408 kts | 113° |
| 2026-04-25 09:27 | 47.98751 | 17.34302 | 18098 ft | 411 kts | 110° |
| 2026-04-25 09:27 | 47.97846 | 17.38366 | 18648 ft | 415 kts | 107° |
| 2026-04-25 09:27 | 47.96947 | 17.42491 | 19171 ft | 418 kts | 107° |
| 2026-04-25 09:27 | 47.96047 | 17.46631 | 19748 ft | 420 kts | 107° |
| 2026-04-25 09:28 | 47.95138 | 17.50794 | 20312 ft | 423 kts | 107° |
| 2026-04-25 09:28 | 47.94218 | 17.54984 | 20843 ft | 427 kts | 107° |
| 2026-04-25 09:28 | 47.93289 | 17.59204 | 21371 ft | 430 kts | 107° |
| 2026-04-25 09:28 | 47.92350 | 17.63462 | 21878 ft | 434 kts | 107° |
| 2026-04-25 09:29 | 47.91404 | 17.67743 | 22392 ft | 436 kts | 107° |
| 2026-04-25 09:29 | 47.90449 | 17.72049 | 22873 ft | 439 kts | 107° |
| 2026-04-25 09:29 | 47.89483 | 17.76390 | 23347 ft | 442 kts | 107° |
| 2026-04-25 09:29 | 47.88509 | 17.80755 | 23782 ft | 446 kts | 107° |
| 2026-04-25 09:30 | 47.87527 | 17.85155 | 24170 ft | 449 kts | 107° |
| 2026-04-25 09:30 | 47.86538 | 17.89583 | 24543 ft | 452 kts | 107° |
| 2026-04-25 09:30 | 47.85540 | 17.94031 | 24925 ft | 455 kts | 107° |
| 2026-04-25 09:30 | 47.84486 | 17.98487 | 25290 ft | 458 kts | 112° |
| 2026-04-25 09:31 | 47.83168 | 18.02805 | 25660 ft | 461 kts | 114° |
| 2026-04-25 09:31 | 47.81812 | 18.07155 | 26021 ft | 464 kts | 114° |
| 2026-04-25 09:31 | 47.80444 | 18.11525 | 26391 ft | 467 kts | 114° |
| 2026-04-25 09:31 | 47.79065 | 18.15919 | 26758 ft | 470 kts | 114° |
| 2026-04-25 09:32 | 47.77698 | 18.20275 | 27112 ft | 473 kts | 115° |
| 2026-04-25 09:32 | 47.76301 | 18.24715 | 27473 ft | 475 kts | 115° |
| 2026-04-25 09:32 | 47.74914 | 18.29190 | 27826 ft | 478 kts | 112° |
| 2026-04-25 09:32 | 47.73851 | 18.33876 | 28174 ft | 480 kts | 103° |
| 2026-04-25 09:33 | 47.73256 | 18.38752 | 28527 ft | 480 kts | 94° |
| 2026-04-25 09:33 | 47.72907 | 18.43629 | 28871 ft | 483 kts | 94° |
| 2026-04-25 09:33 | 47.72538 | 18.48598 | 29201 ft | 485 kts | 94° |
| 2026-04-25 09:33 | 47.72153 | 18.53601 | 29542 ft | 488 kts | 94° |
| 2026-04-25 09:34 | 47.71757 | 18.58625 | 29850 ft | 491 kts | 94° |
| 2026-04-25 09:34 | 47.71356 | 18.63671 | 30152 ft | 493 kts | 94° |
| 2026-04-25 09:34 | 47.70953 | 18.68736 | 30418 ft | 496 kts | 94° |
| 2026-04-25 09:34 | 47.70552 | 18.73839 | 30683 ft | 498 kts | 94° |
| 2026-04-25 09:35 | 47.70149 | 18.78956 | 30967 ft | 499 kts | 95° |
| 2026-04-25 09:35 | 47.69743 | 18.84070 | 31336 ft | 499 kts | 95° |
| 2026-04-25 09:35 | 47.69332 | 18.89180 | 31705 ft | 498 kts | 95° |
| 2026-04-25 09:35 | 47.68919 | 18.94281 | 32062 ft | 498 kts | 95° |
| 2026-04-25 09:36 | 47.68469 | 18.99379 | 32414 ft | 498 kts | 97° |
| 2026-04-25 09:36 | 47.67898 | 19.04453 | 32775 ft | 499 kts | 99° |
| 2026-04-25 09:36 | 47.67213 | 19.09501 | 33151 ft | 499 kts | 101° |
| 2026-04-25 09:36 | 47.66458 | 19.14515 | 33532 ft | 498 kts | 102° |
| 2026-04-25 09:37 | 47.65678 | 19.19529 | 33923 ft | 498 kts | 102° |
| 2026-04-25 09:37 | 47.64910 | 19.24528 | 34282 ft | 497 kts | 101° |
| 2026-04-25 09:37 | 47.64170 | 19.29526 | 34651 ft | 496 kts | 101° |
| 2026-04-25 09:37 | 47.63456 | 19.34517 | 35019 ft | 494 kts | 100° |
| 2026-04-25 09:38 | 47.62757 | 19.39499 | 35365 ft | 493 kts | 100° |
| 2026-04-25 09:38 | 47.62062 | 19.44477 | 35709 ft | 493 kts | 100° |
| 2026-04-25 09:38 | 47.61366 | 19.49451 | 35972 ft | 493 kts | 100° |
| 2026-04-25 09:39 | 47.59960 | 19.59353 | 36031 ft | 490 kts | 100° |
| 2026-04-25 09:39 | 47.58531 | 19.69219 | 36020 ft | 490 kts | 100° |
| 2026-04-25 09:40 | 47.56370 | 19.83999 | 36016 ft | 490 kts | 100° |
| 2026-04-25 09:40 | 47.54924 | 19.93867 | 36013 ft | 491 kts | 100° |
| 2026-04-25 09:41 | 47.53469 | 20.03745 | 36014 ft | 491 kts | 100° |
| 2026-04-25 09:41 | 47.51995 | 20.13610 | 36009 ft | 491 kts | 100° |
| 2026-04-25 09:42 | 47.50527 | 20.23398 | 36006 ft | 491 kts | 100° |
| 2026-04-25 09:42 | 47.49058 | 20.33160 | 36004 ft | 491 kts | 100° |
| 2026-04-25 09:43 | 47.47567 | 20.43002 | 36010 ft | 490 kts | 100° |
| 2026-04-25 09:43 | 47.46067 | 20.52836 | 36005 ft | 490 kts | 100° |
| 2026-04-25 09:44 | 47.44562 | 20.62658 | 36001 ft | 490 kts | 101° |
| 2026-04-25 09:44 | 47.43038 | 20.72480 | 36001 ft | 490 kts | 101° |
| 2026-04-25 09:45 | 47.41509 | 20.82287 | 35997 ft | 490 kts | 101° |
| 2026-04-25 09:45 | 47.39982 | 20.92100 | 35991 ft | 490 kts | 101° |
| 2026-04-25 09:46 | 47.38444 | 21.01902 | 35995 ft | 491 kts | 101° |
| 2026-04-25 09:46 | 47.36888 | 21.11705 | 35995 ft | 491 kts | 101° |
| 2026-04-25 09:47 | 47.35328 | 21.21501 | 35995 ft | 491 kts | 101° |
| 2026-04-25 09:47 | 47.33760 | 21.31300 | 36001 ft | 491 kts | 101° |
| 2026-04-25 09:48 | 47.32189 | 21.41087 | 36002 ft | 490 kts | 101° |
| 2026-04-25 09:48 | 47.30609 | 21.50851 | 36001 ft | 490 kts | 101° |
| 2026-04-25 09:49 | 47.29018 | 21.60608 | 36003 ft | 490 kts | 101° |
| 2026-04-25 09:49 | 47.27414 | 21.70363 | 36011 ft | 490 kts | 101° |
| 2026-04-25 09:50 | 47.25804 | 21.80099 | 36012 ft | 489 kts | 102° |
| 2026-04-25 09:50 | 47.23260 | 21.89399 | 36002 ft | 493 kts | 120° |
| 2026-04-25 09:51 | 47.19487 | 21.97806 | 35993 ft | 493 kts | 123° |
| 2026-04-25 09:51 | 47.15677 | 22.06182 | 36000 ft | 493 kts | 123° |
| 2026-04-25 09:52 | 47.11865 | 22.14544 | 35981 ft | 492 kts | 123° |
| 2026-04-25 09:52 | 47.08054 | 22.22893 | 35990 ft | 492 kts | 123° |
| 2026-04-25 09:53 | 47.04239 | 22.31225 | 36004 ft | 492 kts | 123° |
| 2026-04-25 09:53 | 47.00420 | 22.39532 | 36011 ft | 491 kts | 123° |
| 2026-04-25 09:54 | 46.96595 | 22.47814 | 36010 ft | 491 kts | 123° |
| 2026-04-25 09:54 | 46.92786 | 22.56030 | 36012 ft | 491 kts | 123° |
| 2026-04-25 09:55 | 46.88954 | 22.64298 | 36015 ft | 491 kts | 123° |
| 2026-04-25 09:55 | 46.85121 | 22.72553 | 36015 ft | 490 kts | 123° |
| 2026-04-25 09:56 | 46.81279 | 22.80780 | 36014 ft | 490 kts | 123° |
| 2026-04-25 09:56 | 46.77424 | 22.88997 | 36006 ft | 490 kts | 123° |
| 2026-04-25 09:57 | 46.73575 | 22.97195 | 36018 ft | 490 kts | 123° |
| 2026-04-25 09:57 | 46.69724 | 23.05388 | 35994 ft | 489 kts | 123° |
| 2026-04-25 09:58 | 46.65875 | 23.13551 | 35993 ft | 489 kts | 123° |
| 2026-04-25 09:58 | 46.62014 | 23.21686 | 35993 ft | 489 kts | 123° |
| 2026-04-25 09:59 | 46.58147 | 23.29810 | 36002 ft | 488 kts | 123° |
| 2026-04-25 09:59 | 46.54281 | 23.37922 | 35996 ft | 488 kts | 123° |
| 2026-04-25 10:00 | 46.50417 | 23.46020 | 35990 ft | 488 kts | 123° |
| 2026-04-25 10:00 | 46.46542 | 23.54106 | 35995 ft | 488 kts | 124° |
| 2026-04-25 10:01 | 46.42658 | 23.62182 | 36004 ft | 488 kts | 124° |
| 2026-04-25 10:01 | 46.38781 | 23.70233 | 36003 ft | 487 kts | 124° |
| 2026-04-25 10:02 | 46.34894 | 23.78281 | 36013 ft | 487 kts | 124° |
| 2026-04-25 10:02 | 46.31004 | 23.86299 | 36005 ft | 487 kts | 124° |
| 2026-04-25 10:03 | 46.27106 | 23.94304 | 36017 ft | 487 kts | 124° |
| 2026-04-25 10:03 | 46.23212 | 24.02301 | 36016 ft | 487 kts | 124° |
| 2026-04-25 10:04 | 46.19309 | 24.10284 | 36028 ft | 487 kts | 124° |
| 2026-04-25 10:04 | 46.15400 | 24.18257 | 36022 ft | 487 kts | 124° |
| 2026-04-25 10:05 | 46.11489 | 24.26220 | 36025 ft | 486 kts | 124° |
| 2026-04-25 10:05 | 46.07572 | 24.34170 | 36024 ft | 486 kts | 124° |
| 2026-04-25 10:06 | 46.03641 | 24.42097 | 36025 ft | 486 kts | 124° |
| 2026-04-25 10:06 | 45.99710 | 24.50007 | 36031 ft | 486 kts | 124° |
| 2026-04-25 10:07 | 45.95778 | 24.57907 | 36040 ft | 485 kts | 124° |
| 2026-04-25 10:07 | 45.91855 | 24.65786 | 36024 ft | 485 kts | 124° |
| 2026-04-25 10:08 | 45.87928 | 24.73644 | 36030 ft | 484 kts | 124° |
| 2026-04-25 10:08 | 45.83996 | 24.81485 | 36042 ft | 484 kts | 124° |
| 2026-04-25 10:09 | 45.80059 | 24.89329 | 36032 ft | 484 kts | 124° |
| 2026-04-25 10:09 | 45.76116 | 24.97151 | 36039 ft | 485 kts | 124° |
| 2026-04-25 10:10 | 45.72154 | 25.04965 | 36042 ft | 485 kts | 124° |
| 2026-04-25 10:10 | 45.68196 | 25.12777 | 36050 ft | 485 kts | 124° |
| 2026-04-25 10:11 | 45.64900 | 25.19257 | 36043 ft | 485 kts | 124° |
| 2026-04-25 10:11 | 45.60925 | 25.27037 | 36049 ft | 485 kts | 124° |
| 2026-04-25 10:12 | 45.56954 | 25.34821 | 36038 ft | 485 kts | 124° |
| 2026-04-25 10:13 | 45.51002 | 25.46450 | 36048 ft | 483 kts | 124° |
| 2026-04-25 10:13 | 45.47033 | 25.54151 | 36051 ft | 482 kts | 124° |
| 2026-04-25 10:14 | 45.43066 | 25.61832 | 36058 ft | 481 kts | 124° |
| 2026-04-25 10:14 | 45.39111 | 25.69495 | 36065 ft | 480 kts | 124° |
| 2026-04-25 10:15 | 45.35153 | 25.77129 | 36053 ft | 479 kts | 124° |
| 2026-04-25 10:15 | 45.31196 | 25.84736 | 36054 ft | 478 kts | 125° |
| 2026-04-25 10:16 | 45.27228 | 25.92326 | 36056 ft | 478 kts | 125° |
| 2026-04-25 10:16 | 45.23262 | 25.99896 | 36059 ft | 477 kts | 125° |
| 2026-04-25 10:17 | 45.19322 | 26.07419 | 35378 ft | 481 kts | 125° |
| 2026-04-25 10:17 | 45.17326 | 26.11223 | 34608 ft | 479 kts | 125° |
| 2026-04-25 10:17 | 45.15340 | 26.14998 | 33837 ft | 477 kts | 125° |
| 2026-04-25 10:17 | 45.13358 | 26.18754 | 32987 ft | 474 kts | 125° |
| 2026-04-25 10:18 | 45.11391 | 26.22475 | 32170 ft | 470 kts | 125° |
| 2026-04-25 10:18 | 45.09441 | 26.26168 | 31385 ft | 466 kts | 125° |
| 2026-04-25 10:18 | 45.07506 | 26.29829 | 30610 ft | 462 kts | 125° |
| 2026-04-25 10:18 | 45.05589 | 26.33452 | 29810 ft | 458 kts | 125° |
| 2026-04-25 10:19 | 45.03582 | 26.36922 | 28944 ft | 455 kts | 134° |
| 2026-04-25 10:19 | 45.01217 | 26.39855 | 28099 ft | 450 kts | 144° |
| 2026-04-25 10:19 | 44.98564 | 26.42144 | 27281 ft | 445 kts | 155° |
| 2026-04-25 10:19 | 44.95713 | 26.43740 | 26478 ft | 437 kts | 166° |
| 2026-04-25 10:20 | 44.92766 | 26.44637 | 25684 ft | 430 kts | 175° |
| 2026-04-25 10:20 | 44.89809 | 26.45060 | 24925 ft | 425 kts | 177° |
| 2026-04-25 10:20 | 44.86881 | 26.45470 | 24172 ft | 420 kts | 177° |
| 2026-04-25 10:20 | 44.83991 | 26.45881 | 23374 ft | 415 kts | 177° |
| 2026-04-25 10:21 | 44.81142 | 26.46290 | 22513 ft | 409 kts | 177° |
| 2026-04-25 10:21 | 44.78330 | 26.46692 | 21669 ft | 403 kts | 177° |
| 2026-04-25 10:21 | 44.75571 | 26.46665 | 20847 ft | 392 kts | 193° |
| 2026-04-25 10:21 | 44.73020 | 26.45550 | 20054 ft | 379 kts | 210° |
| 2026-04-25 10:22 | 44.70885 | 26.43503 | 19287 ft | 367 kts | 226° |
| 2026-04-25 10:22 | 44.69303 | 26.40764 | 18528 ft | 356 kts | 242° |
| 2026-04-25 10:22 | 44.68343 | 26.37614 | 17700 ft | 347 kts | 257° |
| 2026-04-25 10:22 | 44.67974 | 26.34305 | 16867 ft | 340 kts | 265° |
| 2026-04-25 10:23 | 44.67739 | 26.31021 | 16059 ft | 336 kts | 265° |
| 2026-04-25 10:23 | 44.67501 | 26.27783 | 15251 ft | 332 kts | 265° |
| 2026-04-25 10:23 | 44.67261 | 26.24578 | 14479 ft | 328 kts | 264° |
| 2026-04-25 10:23 | 44.67024 | 26.21415 | 13714 ft | 324 kts | 264° |
| 2026-04-25 10:24 | 44.66786 | 26.18279 | 12864 ft | 321 kts | 264° |
| 2026-04-25 10:24 | 44.66552 | 26.15177 | 12044 ft | 317 kts | 264° |
| 2026-04-25 10:24 | 44.66321 | 26.12115 | 11252 ft | 314 kts | 264° |
| 2026-04-25 10:24 | 44.66093 | 26.09079 | 10474 ft | 311 kts | 264° |
| 2026-04-25 10:25 | 44.65869 | 26.06079 | 9809 ft | 305 kts | 264° |
| 2026-04-25 10:25 | 44.65651 | 26.03202 | 9569 ft | 286 kts | 264° |
| 2026-04-25 10:25 | 44.65446 | 26.00531 | 9496 ft | 264 kts | 264° |
| 2026-04-25 10:25 | 44.65253 | 25.98035 | 9510 ft | 253 kts | 264° |
| 2026-04-25 10:26 | 44.65064 | 25.95579 | 9236 ft | 255 kts | 264° |
| 2026-04-25 10:26 | 44.64872 | 25.93073 | 8682 ft | 260 kts | 264° |
| 2026-04-25 10:26 | 44.64678 | 25.90543 | 8114 ft | 262 kts | 264° |
| 2026-04-25 10:26 | 44.64478 | 25.87962 | 7457 ft | 269 kts | 264° |
| 2026-04-25 10:27 | 44.64273 | 25.85326 | 6805 ft | 274 kts | 264° |
| 2026-04-25 10:27 | 44.64064 | 25.82640 | 6153 ft | 279 kts | 264° |
| 2026-04-25 10:27 | 44.63850 | 25.79917 | 5468 ft | 282 kts | 264° |
| 2026-04-25 10:27 | 44.63634 | 25.77167 | 4814 ft | 284 kts | 264° |
| 2026-04-25 10:28 | 44.63416 | 25.74395 | 4144 ft | 286 kts | 264° |
| 2026-04-25 10:28 | 44.63197 | 25.71620 | 3604 ft | 283 kts | 264° |
| 2026-04-25 10:28 | 44.62988 | 25.68962 | 3488 ft | 265 kts | 264° |
| 2026-04-25 10:28 | 44.62791 | 25.66488 | 3492 ft | 245 kts | 264° |
| 2026-04-25 10:29 | 44.62608 | 25.64192 | 3491 ft | 232 kts | 264° |
| 2026-04-25 10:29 | 44.62426 | 25.61936 | 3495 ft | 232 kts | 264° |
| 2026-04-25 10:29 | 44.62246 | 25.59683 | 3494 ft | 232 kts | 264° |
| 2026-04-25 10:29 | 44.62067 | 25.57432 | 3499 ft | 233 kts | 264° |
| 2026-04-25 10:30 | 44.61886 | 25.55177 | 3495 ft | 232 kts | 264° |
| 2026-04-25 10:30 | 44.61706 | 25.52923 | 3498 ft | 232 kts | 264° |
| 2026-04-25 10:30 | 44.61521 | 25.50673 | 3497 ft | 232 kts | 262° |
| 2026-04-25 10:30 | 44.60970 | 25.48558 | 3498 ft | 232 kts | 235° |
| 2026-04-25 10:31 | 44.59787 | 25.47050 | 3497 ft | 233 kts | 207° |
| 2026-04-25 10:31 | 44.58236 | 25.46482 | 3322 ft | 231 kts | 179° |
| 2026-04-25 10:31 | 44.56642 | 25.46708 | 3142 ft | 230 kts | 172° |
| 2026-04-25 10:31 | 44.55053 | 25.46973 | 2958 ft | 230 kts | 172° |
| 2026-04-25 10:32 | 44.53559 | 25.47659 | 2782 ft | 227 kts | 146° |
| 2026-04-25 10:32 | 44.52494 | 25.49214 | 2621 ft | 218 kts | 117° |
| 2026-04-25 10:32 | 44.52082 | 25.51164 | 2519 ft | 204 kts | 92° |
| 2026-04-25 10:32 | 44.52195 | 25.53099 | 2495 ft | 197 kts | 83° |
| 2026-04-25 10:33 | 44.52348 | 25.54981 | 2499 ft | 197 kts | 84° |
| 2026-04-25 10:33 | 44.52490 | 25.56970 | 2492 ft | 208 kts | 84° |
| 2026-04-25 10:33 | 44.52647 | 25.58998 | 2495 ft | 211 kts | 84° |
| 2026-04-25 10:33 | 44.52810 | 25.61041 | 2505 ft | 213 kts | 83° |
| 2026-04-25 10:34 | 44.52975 | 25.63099 | 2499 ft | 212 kts | 83° |
| 2026-04-25 10:34 | 44.53140 | 25.65158 | 2491 ft | 211 kts | 84° |
| 2026-04-25 10:34 | 44.53304 | 25.67200 | 2505 ft | 210 kts | 84° |
| 2026-04-25 10:34 | 44.53460 | 25.69160 | 2506 ft | 199 kts | 83° |
| 2026-04-25 10:35 | 44.53607 | 25.71002 | 2498 ft | 184 kts | 83° |
| 2026-04-25 10:35 | 44.53746 | 25.72750 | 2497 ft | 178 kts | 84° |
| 2026-04-25 10:35 | 44.53882 | 25.74474 | 2498 ft | 177 kts | 84° |
| 2026-04-25 10:35 | 44.54018 | 25.76193 | 2503 ft | 177 kts | 84° |
| 2026-04-25 10:36 | 44.54155 | 25.77917 | 2501 ft | 179 kts | 84° |
| 2026-04-25 10:36 | 44.54290 | 25.79634 | 2506 ft | 172 kts | 84° |
| 2026-04-25 10:36 | 44.54412 | 25.81187 | 2496 ft | 151 kts | 84° |
| 2026-04-25 10:36 | 44.54525 | 25.82615 | 2493 ft | 146 kts | 83° |
| 2026-04-25 10:37 | 44.54634 | 25.84013 | 2493 ft | 144 kts | 84° |
| 2026-04-25 10:37 | 44.54743 | 25.85407 | 2498 ft | 144 kts | 84° |
| 2026-04-25 10:37 | 44.54850 | 25.86768 | 2493 ft | 142 kts | 84° |
| 2026-04-25 10:37 | 44.54958 | 25.88150 | 2494 ft | 142 kts | 84° |
| 2026-04-25 10:38 | 44.55064 | 25.89508 | 2470 ft | 142 kts | 84° |
| 2026-04-25 10:38 | 44.55171 | 25.90888 | 2380 ft | 142 kts | 84° |
| 2026-04-25 10:38 | 44.55279 | 25.92278 | 2246 ft | 143 kts | 84° |
| 2026-04-25 10:38 | 44.55386 | 25.93656 | 2081 ft | 141 kts | 85° |
| 2026-04-25 10:39 | 44.55493 | 25.95031 | 1920 ft | 141 kts | 85° |
| 2026-04-25 10:39 | 44.55599 | 25.96401 | 1755 ft | 142 kts | 85° |
| 2026-04-25 10:39 | 44.55705 | 25.97772 | 1577 ft | 141 kts | 85° |
| 2026-04-25 10:39 | 44.55810 | 25.99140 | 1389 ft | 141 kts | 84° |
| 2026-04-25 10:40 | 44.55916 | 26.00512 | 1233 ft | 141 kts | 84° |
| 2026-04-25 10:40 | 44.56021 | 26.01875 | 1065 ft | 141 kts | 84° |
| 2026-04-25 10:40 | 44.56125 | 26.03226 | 910 ft | 139 kts | 83° |
| 2026-04-25 10:40 | 44.56193 | 26.04121 | 805 ft | 140 kts | 82° |
| 2026-04-25 10:41 | 44.56330 | 26.05925 | 567 ft | 139 kts | 82° |
| 2026-04-25 10:41 | 44.56437 | 26.07263 | 398 ft | 137 kts | 82° |
| 2026-04-25 10:41 | 44.56545 | 26.08572 | 329 ft | 126 kts | 82° |
| 2026-04-25 10:41 | 44.56629 | 26.09644 | 320 ft | 90 kts | 85° |
| 2026-04-25 10:42 | 44.56672 | 26.10306 | 322 ft | 59 kts | 84° |
| 2026-04-25 10:42 | 44.56709 | 26.10719 | 319 ft | 30 kts | 65° |
| 2026-04-25 10:42 | 44.56808 | 26.10761 | 319 ft | 0 kts | 353° |
| 2026-04-25 10:42 | 44.56825 | 26.10758 | 321 ft | 7 kts | 353° |
| 2026-04-25 10:43 | 44.56887 | 26.10749 | 320 ft | 11 kts | 354° |
| 2026-04-25 10:43 | 44.56909 | 26.10745 | 319 ft | 0 kts | 354° |
| 2026-04-25 10:43 | 44.56939 | 26.10741 | 321 ft | 12 kts | 354° |
| 2026-04-25 10:44 | 44.57029 | 26.10652 | 320 ft | 18 kts | 306° |
| 2026-04-25 10:44 | 44.57067 | 26.10503 | 321 ft | 17 kts | 274° |
| 2026-04-25 10:44 | 44.57053 | 26.10372 | 321 ft | 9 kts | 220° |
| 2026-04-25 10:44 | 44.56994 | 26.10373 | 320 ft | 6 kts | 172° |